Time;durP1;ratioP1;P1;durP2;ratioP2;P2;SDS_P1;SDS_P2;PMS_P1;PMS_P2;Temp;Humidity;BMP_temperature;BMP_pressure;BME280_temperature;BME280_humidity;BME280_pressure;Samples;Min_cycle;Max_cycle;Signal;HPM_P1;HPM_P2
2021/04/26 00:01:29;;;;;;;4.50;2.50;;;;;;;11.68;44.16;95136.44;5070842;28;20434;-72
2021/04/26 00:03:55;;;;;;;3.37;2.50;;;;;;;11.65;44.68;95141.41;5069868;28;20555;-70
2021/04/26 00:06:21;;;;;;;4.07;1.83;;;;;;;11.66;44.79;95149.03;5070233;28;20426;-72
2021/04/26 00:08:48;;;;;;;11.27;2.27;;;;;;;11.57;45.00;95141.88;5070044;28;20807;-70
2021/04/26 00:11:14;;;;;;;10.03;2.53;;;;;;;11.63;44.35;95146.09;5070038;28;20886;-71
2021/04/26 00:13:41;;;;;;;4.07;2.37;;;;;;;11.53;44.97;95148.69;5069771;28;20547;-71
2021/04/26 00:16:07;;;;;;;5.33;2.87;;;;;;;11.55;44.73;95147.38;5070359;28;20433;-72
2021/04/26 00:18:33;;;;;;;6.23;2.53;;;;;;;11.35;44.98;95147.25;5069855;28;20461;-71
2021/04/26 00:21:00;;;;;;;9.07;2.80;;;;;;;11.29;44.81;95147.50;5071581;28;20524;-74
2021/04/26 00:23:26;;;;;;;6.73;3.17;;;;;;;11.42;44.70;95147.84;5069285;28;20438;-72
2021/04/26 00:25:54;;;;;;;11.17;3.00;;;;;;;11.34;44.99;95155.38;5070314;28;20517;-73
2021/04/26 00:28:21;;;;;;;6.90;2.73;;;;;;;11.40;44.58;95146.50;5069513;28;20446;-72
2021/04/26 00:30:47;;;;;;;5.33;2.73;;;;;;;11.33;44.76;95159.06;5069972;28;20434;-73
2021/04/26 00:33:14;;;;;;;7.60;2.77;;;;;;;11.35;45.41;95157.75;5069341;28;20433;-72
2021/04/26 00:35:40;;;;;;;4.83;2.50;;;;;;;11.20;45.84;95162.91;5070093;28;20438;-74
2021/04/26 00:38:07;;;;;;;7.20;3.17;;;;;;;11.24;45.71;95162.16;5069147;28;20840;-74
2021/04/26 00:40:34;;;;;;;3.60;1.90;;;;;;;11.22;45.58;95172.09;5069736;28;20438;-71
2021/04/26 00:43:00;;;;;;;4.50;2.60;;;;;;;11.18;46.28;95173.63;5069174;28;20436;-71
2021/04/26 00:45:27;;;;;;;4.13;2.43;;;;;;;11.15;46.28;95184.63;5069362;28;20453;-71
2021/04/26 00:47:54;;;;;;;5.37;3.03;;;;;;;11.11;45.70;95180.94;5069366;28;20430;-72
2021/04/26 00:50:30;;;;;;;8.37;3.03;;;;;;;10.98;46.07;95173.50;5071392;28;20438;-73
2021/04/26 00:52:58;;;;;;;3.60;2.50;;;;;;;11.02;46.25;95168.56;5071464;28;20503;-70
2021/04/26 00:55:27;;;;;;;5.87;2.60;;;;;;;11.04;46.08;95177.75;5069652;28;20536;-74
2021/04/26 00:57:54;;;;;;;4.50;2.73;;;;;;;10.96;45.53;95186.09;5068964;28;20450;-73
2021/04/26 01:00:23;;;;;;;6.67;2.60;;;;;;;10.95;45.65;95183.69;5068535;28;20485;-72
2021/04/26 01:02:50;;;;;;;6.13;2.50;;;;;;;10.98;46.08;95191.06;5069150;28;20507;-71
2021/04/26 01:05:22;;;;;;;6.33;2.40;;;;;;;10.78;46.37;95196.94;5069842;28;20524;-75
2021/04/26 01:07:49;;;;;;;4.83;2.43;;;;;;;10.72;46.30;95197.94;5069727;28;21050;-70
2021/04/26 01:10:22;;;;;;;4.70;2.37;;;;;;;10.69;46.83;95201.03;5068391;28;20480;-71
2021/04/26 01:13:28;;;;;;;5.97;2.00;;;;;;;10.73;46.48;95191.63;5068874;28;20454;-72
2021/04/26 01:16:14;;;;;;;4.43;2.37;;;;;;;10.65;47.06;95188.69;5071970;28;20528;-71
2021/04/26 01:19:07;;;;;;;8.47;2.47;;;;;;;10.60;47.24;95192.03;5069134;28;20496;-70
2021/04/26 01:21:37;;;;;;;5.60;1.80;;;;;;;10.60;46.42;95192.03;5067724;28;21058;-71
2021/04/26 01:24:37;;;;;;;4.20;2.10;;;;;;;10.47;47.37;95192.44;5069250;28;20990;-69
2021/04/26 01:27:19;;;;;;;5.57;3.03;;;;;;;10.51;46.54;95203.22;5067421;28;20828;-69
2021/04/26 01:29:57;;;;;;;5.33;2.77;;;;;;;10.44;47.11;95203.41;5067616;28;20457;-71
2021/04/26 01:32:36;;;;;;;2.77;1.83;;;;;;;10.34;47.95;95207.75;5068979;28;20434;-70
2021/04/26 01:35:13;;;;;;;8.90;2.93;;;;;;;10.32;47.08;95202.75;5067516;28;20513;-69
2021/04/26 01:37:41;;;;;;;4.03;2.20;;;;;;;10.41;46.97;95203.91;5068739;28;20939;-71
2021/04/26 01:40:12;;;;;;;6.60;2.97;;;;;;;10.48;47.11;95194.03;5068993;28;20438;-70
2021/04/26 01:42:42;;;;;;;5.63;2.43;;;;;;;10.40;46.86;95186.59;5067573;28;20525;-71
2021/04/26 01:45:12;;;;;;;5.70;2.70;;;;;;;10.34;47.53;95192.84;5068945;28;20446;-72
2021/04/26 01:47:40;;;;;;;4.00;2.40;;;;;;;10.42;47.17;95195.00;5068801;28;20509;-70
2021/04/26 01:50:11;;;;;;;6.50;2.83;;;;;;;10.36;47.48;95201.25;5067147;28;20442;-72
2021/04/26 01:52:38;;;;;;;5.97;2.87;;;;;;;10.34;47.16;95192.84;5067414;28;20439;-69
2021/04/26 01:55:08;;;;;;;3.47;1.90;;;;;;;10.33;47.62;95191.22;5067608;28;20486;-73
2021/04/26 01:57:40;;;;;;;4.53;2.33;;;;;;;10.28;47.42;95191.19;5066754;28;20979;-70
2021/04/26 02:00:13;;;;;;;3.40;1.93;;;;;;;10.25;47.29;95183.84;5067320;28;20446;-70
2021/04/26 02:03:01;;;;;;;11.20;2.80;;;;;;;10.13;47.78;95185.78;5068532;28;20895;-73
2021/04/26 02:05:33;;;;;;;5.13;2.67;;;;;;;10.07;48.41;95191.97;5067347;28;20468;-71
2021/04/26 02:08:07;;;;;;;6.63;3.30;;;;;;;10.10;47.53;95183.66;5066968;28;20532;-70
2021/04/26 02:10:42;;;;;;;6.03;2.93;;;;;;;10.28;47.44;95193.81;5070682;28;20552;-71
2021/04/26 02:13:09;;;;;;;4.03;2.63;;;;;;;10.22;47.03;95186.94;5070671;28;20442;-71
2021/04/26 02:15:38;;;;;;;7.13;2.87;;;;;;;10.22;47.05;95189.53;5070948;28;20442;-73
2021/04/26 02:18:05;;;;;;;8.23;3.00;;;;;;;10.22;47.18;95180.91;5072368;28;20445;-73
2021/04/26 02:20:32;;;;;;;4.93;2.53;;;;;;;10.21;47.80;95190.59;5070603;28;20565;-72
2021/04/26 02:22:59;;;;;;;3.97;2.23;;;;;;;10.15;48.35;95183.72;5072173;28;20533;-71
2021/04/26 02:25:25;;;;;;;4.37;2.30;;;;;;;10.14;47.68;95184.75;5070742;28;20499;-71
2021/04/26 02:27:52;;;;;;;7.53;2.93;;;;;;;9.79;49.19;95168.59;5072053;28;20433;-72
2021/04/26 02:30:20;;;;;;;7.23;3.10;;;;;;;9.96;48.57;95182.44;5070663;28;20898;-72
2021/04/26 02:33:11;;;;;;;5.83;3.17;;;;;;;10.06;47.89;95185.16;5071652;28;20446;-73
2021/04/26 02:36:32;;;;;;;11.10;3.30;;;;;;;9.33;49.97;95184.72;5072144;28;21081;-71
2021/04/26 02:39:05;;;;;;;5.97;2.83;;;;;;;9.23;51.10;95195.03;5071531;28;20967;-72
2021/04/26 02:41:35;;;;;;;8.23;3.97;;;;;;;9.37;50.54;95172.75;5071006;28;20473;-70
2021/04/26 02:44:29;;;;;;;6.17;2.50;;;;;;;9.19;51.43;95172.00;5070597;28;20441;-70
2021/04/26 02:47:21;;;;;;;7.33;2.40;;;;;;;8.97;52.43;95197.28;5070213;28;20431;-71
2021/04/26 02:50:04;;;;;;;5.17;3.07;;;;;;;8.39;54.37;95188.97;5071038;28;20990;-72
2021/04/26 02:52:39;;;;;;;6.20;3.03;;;;;;;8.05;55.66;95202.91;5072185;28;20433;-71
2021/04/26 02:55:09;;;;;;;6.77;3.50;;;;;;;7.91;55.44;95196.38;5070151;28;21127;-71
2021/04/26 02:57:38;;;;;;;5.43;3.20;;;;;;;8.27;55.72;95190.84;5069791;28;20442;-73
2021/04/26 03:00:07;;;;;;;5.37;2.90;;;;;;;8.39;55.09;95204.66;5070146;28;20664;-72
2021/04/26 03:02:40;;;;;;;4.00;2.67;;;;;;;8.36;55.55;95199.88;5071154;28;20462;-70
2021/04/26 03:05:10;;;;;;;6.43;3.27;;;;;;;8.32;55.65;95209.19;5071414;28;20438;-71
2021/04/26 03:07:40;;;;;;;5.53;3.10;;;;;;;8.63;54.22;95200.88;5071250;28;20465;-72
2021/04/26 03:10:10;;;;;;;6.10;3.27;;;;;;;8.65;54.15;95204.03;5070322;28;20461;-73
2021/04/26 03:12:39;;;;;;;12.73;3.83;;;;;;;8.93;53.45;95209.22;5073086;28;20772;-72
2021/04/26 03:15:09;;;;;;;6.90;3.23;;;;;;;9.08;53.39;95211.28;5070021;28;20608;-75
2021/04/26 03:17:39;;;;;;;10.07;4.33;;;;;;;9.23;52.50;95217.53;5069916;28;21223;-73
2021/04/26 03:20:09;;;;;;;8.73;3.97;;;;;;;9.18;52.97;95209.63;5069790;28;20582;-73
2021/04/26 03:22:49;;;;;;;8.93;3.63;;;;;;;9.32;52.91;95220.56;5069613;28;20465;-73
2021/04/26 03:25:21;;;;;;;7.63;3.30;;;;;;;9.34;52.45;95228.16;5069495;28;20914;-72
2021/04/26 03:27:51;;;;;;;5.00;2.57;;;;;;;9.25;52.15;95224.38;5069318;28;20438;-71
2021/04/26 03:30:21;;;;;;;6.00;3.03;;;;;;;9.28;52.40;95231.72;5070923;28;20446;-71
2021/04/26 03:33:00;;;;;;;7.20;2.77;;;;;;;9.27;52.02;95243.22;5069001;28;20445;-72
2021/04/26 03:35:28;;;;;;;11.77;3.73;;;;;;;9.13;52.13;95243.53;5069302;28;20486;-71
2021/04/26 03:37:55;;;;;;;19.00;4.53;;;;;;;9.12;52.23;95241.94;5069013;28;20975;-71
2021/04/26 03:40:26;;;;;;;13.27;3.93;;;;;;;9.19;52.08;95253.06;5069445;28;20976;-71
2021/04/26 03:42:57;;;;;;;10.87;3.90;;;;;;;9.29;52.16;95246.38;5069121;28;20462;-71
2021/04/26 03:45:32;;;;;;;8.17;3.83;;;;;;;9.15;51.88;95238.88;5068744;28;20546;-72
2021/04/26 03:48:17;;;;;;;4.53;2.67;;;;;;;9.25;51.64;95240.06;5070034;28;20507;-73
2021/04/26 03:51:10;;;;;;;9.60;4.40;;;;;;;9.23;51.69;95247.34;5071325;28;20458;-71
2021/04/26 03:53:55;;;;;;;11.00;2.97;;;;;;;9.31;51.18;95260.78;5069840;28;21238;-72
2021/04/26 03:56:35;;;;;;;5.63;2.53;;;;;;;9.31;51.87;95262.59;5068859;28;20446;-71
2021/04/26 03:59:02;;;;;;;5.30;3.00;;;;;;;9.29;51.60;95251.63;5070538;28;20441;-71
2021/04/26 04:01:30;;;;;;;8.73;3.20;;;;;;;9.26;51.79;95242.41;5069052;28;20445;-72
2021/04/26 04:03:58;;;;;;;6.40;3.27;;;;;;;9.39;52.07;95259.59;5071234;28;20446;-72
2021/04/26 04:06:31;;;;;;;5.70;3.17;;;;;;;9.43;51.46;95263.34;5069162;28;20450;-71
2021/04/26 04:09:17;;;;;;;8.60;3.33;;;;;;;9.42;51.17;95256.50;5070627;28;20437;-70
2021/04/26 04:15:04;;;;;;;10.57;3.83;;;;;;;9.54;51.46;95270.31;5069371;28;20824;-70
2021/04/26 04:17:31;;;;;;;8.93;4.13;;;;;;;9.51;51.45;95273.38;5069224;28;20525;-69
2021/04/26 04:19:57;;;;;;;10.17;4.10;;;;;;;9.46;50.99;95278.53;5069405;28;20438;-70
2021/04/26 04:22:24;;;;;;;10.47;4.23;;;;;;;9.42;51.39;95277.44;5067786;28;20442;-70
2021/04/26 04:25:00;;;;;;;8.27;4.33;;;;;;;9.41;51.64;95286.31;5068092;28;20469;-70
2021/04/26 04:27:27;;;;;;;9.73;4.03;;;;;;;9.50;51.31;95274.44;5069156;28;20443;-69
2021/04/26 04:29:53;;;;;;;40.83;6.37;;;;;;;9.65;50.76;95283.28;5067710;28;20434;-71
2021/04/26 04:32:38;;;;;;;9.73;4.77;;;;;;;9.79;51.10;95281.13;5068178;28;20810;-70
2021/04/26 04:35:27;;;;;;;12.67;4.17;;;;;;;9.87;50.86;95288.59;5068852;28;20498;-70
2021/04/26 04:38:12;;;;;;;10.00;5.27;;;;;;;9.90;50.93;95275.00;5068899;28;20436;-71
2021/04/26 04:40:58;;;;;;;16.97;5.90;;;;;;;9.91;51.07;95277.38;5069030;28;20986;-69
2021/04/26 04:43:29;;;;;;;25.97;11.97;;;;;;;9.84;51.45;95275.97;5067581;28;20442;-70
2021/04/26 04:45:56;;;;;;;36.93;15.53;;;;;;;10.02;51.24;95288.75;5067940;28;20445;-71
2021/04/26 04:48:28;;;;;;;24.20;9.73;;;;;;;10.17;51.08;95286.38;5068605;28;20431;-71
2021/04/26 04:50:56;;;;;;;17.53;7.67;;;;;;;10.25;50.75;95293.81;5066801;28;21263;-70
2021/04/26 04:53:23;;;;;;;13.40;6.90;;;;;;;10.21;50.58;95287.50;5067813;28;20538;-71
2021/04/26 04:55:49;;;;;;;30.67;14.07;;;;;;;10.32;50.64;95286.56;5067533;28;20507;-70
2021/04/26 04:58:21;;;;;;;17.43;8.50;;;;;;;10.37;50.06;95301.53;5067033;28;20446;-68
2021/04/26 05:00:47;;;;;;;17.90;7.33;;;;;;;10.41;50.44;95289.56;5067851;28;20575;-70
2021/04/26 05:03:26;;;;;;;17.70;5.97;;;;;;;10.56;49.58;95280.06;5068706;28;20489;-71
2021/04/26 05:06:11;;;;;;;10.80;5.40;;;;;;;10.63;49.37;95285.09;5069165;28;20437;-70
2021/04/26 05:08:55;;;;;;;16.47;5.80;;;;;;;10.68;49.39;95275.47;5069044;28;20425;-72
2021/04/26 05:11:46;;;;;;;9.97;4.30;;;;;;;10.77;49.62;95276.59;5070028;28;20536;-71
2021/04/26 05:14:40;;;;;;;8.87;4.90;;;;;;;10.75;49.86;95283.91;5075510;28;20485;-72
2021/04/26 05:17:07;;;;;;;12.83;4.43;;;;;;;10.74;49.51;95287.59;5068707;28;20525;-70
2021/04/26 05:19:33;;;;;;;11.17;6.07;;;;;;;10.85;49.64;95294.50;5069302;28;20445;-69
2021/04/26 05:22:01;;;;;;;10.00;5.17;;;;;;;10.91;49.11;95298.75;5068634;28;20446;-71
2021/04/26 05:24:31;;;;;;;8.23;4.73;;;;;;;11.12;49.21;95302.38;5067369;28;20464;-70
2021/04/26 05:26:58;;;;;;;12.73;7.03;;;;;;;11.08;48.85;95304.69;5067915;28;20442;-72
2021/04/26 05:29:25;;;;;;;19.83;7.67;;;;;;;11.16;49.94;95306.09;5070229;28;20482;-71
2021/04/26 05:31:53;;;;;;;14.77;6.17;;;;;;;11.03;48.47;95311.72;5066823;28;20450;-69
2021/04/26 05:34:20;;;;;;;10.90;5.00;;;;;;;10.88;49.43;95301.88;5067220;28;20482;-70
2021/04/26 05:36:49;;;;;;;9.07;4.77;;;;;;;11.21;49.31;95293.81;5066669;28;20465;-72
2021/04/26 05:39:16;;;;;;;7.37;4.77;;;;;;;11.15;48.42;95289.56;5067161;28;20530;-71
2021/04/26 05:41:44;;;;;;;15.97;7.17;;;;;;;11.26;48.07;95273.91;5066881;28;20450;-71
2021/04/26 05:44:10;;;;;;;17.60;6.27;;;;;;;11.39;47.80;95268.22;5070476;28;20961;-70
2021/04/26 05:46:46;;;;;;;15.83;6.17;;;;;;;11.55;47.54;95275.19;5071169;28;20460;-70
2021/04/26 05:49:13;;;;;;;16.77;6.23;;;;;;;11.53;48.31;95285.91;5073126;28;20968;-70
2021/04/26 05:51:40;;;;;;;17.80;6.13;;;;;;;11.69;48.64;95279.78;5072169;28;20521;-70
2021/04/26 05:54:06;;;;;;;15.33;6.40;;;;;;;11.81;47.89;95266.44;5072767;28;20540;-70
2021/04/26 05:56:32;;;;;;;17.90;7.00;;;;;;;11.93;46.36;95282.81;5072872;28;20434;-70
2021/04/26 05:58:59;;;;;;;12.83;6.50;;;;;;;11.86;46.46;95275.16;5073625;28;20509;-70
2021/04/26 06:01:25;;;;;;;12.43;6.73;;;;;;;12.04;46.73;95276.59;5072697;28;20828;-71
2021/04/26 06:03:52;;;;;;;13.20;6.70;;;;;;;12.02;46.79;95276.03;5073205;28;20815;-70
2021/04/26 06:06:19;;;;;;;15.43;7.70;;;;;;;12.08;47.54;95273.19;5073222;28;20529;-70
2021/04/26 06:08:45;;;;;;;14.97;7.00;;;;;;;12.20;46.61;95265.09;5073490;28;20558;-71
2021/04/26 06:11:12;;;;;;;10.07;6.23;;;;;;;11.96;46.58;95263.94;5073497;28;20472;-71
2021/04/26 06:13:39;;;;;;;14.73;7.10;;;;;;;12.22;47.02;95269.03;5073667;28;20478;-70
2021/04/26 06:16:07;;;;;;;15.80;7.77;;;;;;;12.23;46.75;95278.50;5073666;28;20516;-69
2021/04/26 06:18:33;;;;;;;13.83;6.27;;;;;;;12.37;46.87;95276.19;5071982;28;20438;-71
2021/04/26 06:21:00;;;;;;;13.73;6.03;;;;;;;12.21;46.56;95256.16;5072468;28;20458;-71
2021/04/26 06:23:27;;;;;;;14.53;5.70;;;;;;;12.41;45.46;95272.00;5072262;28;20461;-72
2021/04/26 06:25:53;;;;;;;12.30;6.00;;;;;;;12.60;46.65;95270.50;5073390;28;20889;-69
2021/04/26 06:28:20;;;;;;;11.00;6.10;;;;;;;12.64;45.87;95271.59;5072610;28;20422;-71
2021/04/26 06:30:47;;;;;;;13.57;7.17;;;;;;;12.79;45.26;95268.97;5073087;28;20975;-70
2021/04/26 06:33:17;;;;;;;11.40;5.87;;;;;;;12.64;46.31;95270.78;5072194;28;20438;-72
2021/04/26 06:35:46;;;;;;;10.83;5.73;;;;;;;12.79;46.62;95268.22;5072223;28;20538;-71
2021/04/26 06:38:13;;;;;;;10.90;6.37;;;;;;;12.84;46.18;95266.38;5071742;28;20438;-71
2021/04/26 06:40:40;;;;;;;14.67;7.00;;;;;;;12.96;45.40;95271.38;5072192;28;20536;-70
2021/04/26 06:43:07;;;;;;;10.33;5.17;;;;;;;13.13;45.97;95279.88;5071396;28;20451;-70
2021/04/26 06:45:34;;;;;;;11.50;5.57;;;;;;;13.04;44.64;95265.66;5072295;28;20537;-70
2021/04/26 06:48:00;;;;;;;17.77;6.43;;;;;;;13.03;44.95;95264.06;5071513;28;20438;-71
2021/04/26 06:50:27;;;;;;;14.60;5.70;;;;;;;13.25;45.38;95261.19;5077965;28;20816;-70
2021/04/26 06:52:55;;;;;;;13.70;6.07;;;;;;;13.31;43.57;95249.59;5072423;28;21197;-70
2021/04/26 06:55:23;;;;;;;9.87;5.83;;;;;;;13.41;44.81;95244.34;5070855;28;20506;-72
2021/04/26 06:57:50;;;;;;;12.97;5.70;;;;;;;13.43;44.48;95242.25;5071560;28;20457;-72
2021/04/26 07:00:18;;;;;;;11.80;5.97;;;;;;;13.56;43.14;95242.50;5072101;28;20468;-70
2021/04/26 07:02:44;;;;;;;13.73;6.07;;;;;;;13.55;43.35;95240.13;5071274;28;20996;-70
2021/04/26 07:05:11;;;;;;;10.73;6.40;;;;;;;13.41;44.61;95245.13;5072119;28;20446;-69
2021/04/26 07:07:37;;;;;;;16.47;6.60;;;;;;;13.79;44.44;95246.41;5071303;28;20536;-69
2021/04/26 07:10:05;;;;;;;12.63;6.90;;;;;;;13.93;44.20;95247.44;5071868;28;20616;-72
2021/04/26 07:12:32;;;;;;;17.57;6.27;;;;;;;13.89;42.87;95251.66;5070961;28;20469;-70
2021/04/26 07:14:59;;;;;;;16.53;5.83;;;;;;;14.05;44.13;95245.31;5071797;28;20495;-70
2021/04/26 07:17:27;;;;;;;12.53;5.70;;;;;;;14.15;43.28;95240.00;5070804;28;20481;-70
2021/04/26 07:19:54;;;;;;;16.90;5.80;;;;;;;14.21;42.83;95252.13;5071021;28;20975;-70
2021/04/26 07:22:20;;;;;;;12.40;6.47;;;;;;;14.19;43.06;95251.59;5071051;28;20454;-71
2021/04/26 07:24:47;;;;;;;11.73;6.50;;;;;;;14.28;42.81;95250.00;5071734;28;20990;-70
2021/04/26 07:27:13;;;;;;;13.10;6.13;;;;;;;14.39;43.95;95251.53;5070231;28;20512;-70
2021/04/26 07:29:40;;;;;;;18.33;7.13;;;;;;;14.57;43.17;95250.13;5071320;28;20971;-70
2021/04/26 07:32:06;;;;;;;24.30;7.57;;;;;;;14.63;43.35;95252.50;5070394;28;20505;-70
2021/04/26 07:34:33;;;;;;;23.23;12.10;;;;;;;14.75;42.24;95250.31;5069791;28;20512;-71
2021/04/26 07:37:01;;;;;;;18.37;12.43;;;;;;;14.56;40.73;95244.06;5070772;28;20557;-71
2021/04/26 07:39:27;;;;;;;20.77;13.57;;;;;;;14.62;41.35;95245.63;5070719;28;20430;-71
2021/04/26 07:41:54;;;;;;;23.73;13.23;;;;;;;14.70;42.86;95250.34;5070664;28;20445;-70
2021/04/26 07:44:21;;;;;;;24.27;12.53;;;;;;;14.94;42.54;95259.16;5070870;28;20495;-72
2021/04/26 07:46:47;;;;;;;21.70;12.20;;;;;;;15.01;42.44;95249.13;5069994;28;20893;-72
2021/04/26 07:49:13;;;;;;;19.37;12.47;;;;;;;15.07;42.10;95242.72;5071342;28;20553;-70
2021/04/26 07:51:40;;;;;;;20.00;11.93;;;;;;;15.24;42.13;95243.13;5070456;28;20888;-71
2021/04/26 07:54:07;;;;;;;19.17;12.13;;;;;;;15.16;40.65;95241.06;5070524;28;20445;-69
2021/04/26 07:56:35;;;;;;;21.60;12.13;;;;;;;15.24;41.73;95242.34;5070906;28;20427;-70
2021/04/26 07:59:02;;;;;;;21.73;11.97;;;;;;;15.32;41.52;95236.47;5070295;28;20520;-70
2021/04/26 08:01:28;;;;;;;21.83;12.70;;;;;;;15.52;41.50;95227.63;5070544;28;20545;-72
2021/04/26 08:03:55;;;;;;;19.13;12.23;;;;;;;15.60;41.25;95225.16;5069884;28;20449;-71
2021/04/26 08:06:21;;;;;;;18.77;12.63;;;;;;;15.77;41.24;95219.47;5070868;28;20450;-71
2021/04/26 08:08:48;;;;;;;19.07;12.20;;;;;;;15.65;41.33;95219.84;5068454;28;20445;-70
2021/04/26 08:11:14;;;;;;;22.10;11.90;;;;;;;15.82;39.95;95214.91;5070670;28;20531;-71
2021/04/26 08:13:41;;;;;;;24.00;11.50;;;;;;;16.00;39.20;95213.44;5075945;28;20450;-71
2021/04/26 08:16:07;;;;;;;18.40;10.80;;;;;;;16.27;39.52;95215.50;5070496;28;20540;-71
2021/04/26 08:18:34;;;;;;;17.37;10.40;;;;;;;16.42;39.32;95216.09;5069730;28;20441;-70
2021/04/26 08:21:01;;;;;;;18.37;10.77;;;;;;;16.54;38.62;95213.84;5070064;28;20434;-70
2021/04/26 08:23:27;;;;;;;18.90;10.80;;;;;;;16.69;39.18;95226.91;5069381;28;20487;-71
2021/04/26 08:25:54;;;;;;;18.13;11.33;;;;;;;16.79;38.48;95213.50;5070331;28;20466;-70
2021/04/26 08:28:21;;;;;;;16.97;10.87;;;;;;;17.00;39.21;95216.66;5069678;28;20430;-71
2021/04/26 08:30:49;;;;;;;17.50;11.47;;;;;;;17.20;38.17;95206.56;5070300;28;20446;-70
2021/04/26 08:33:16;;;;;;;17.93;10.73;;;;;;;17.27;36.55;95215.97;5069639;28;20434;-71
2021/04/26 08:35:42;;;;;;;19.30;11.00;;;;;;;17.23;37.52;95205.97;5071518;28;20489;-70
2021/04/26 08:38:09;;;;;;;65.43;13.20;;;;;;;17.23;37.36;95205.97;5071511;28;20430;-69
2021/04/26 08:40:39;;;;;;;15.00;9.60;;;;;;;17.52;37.02;95215.59;5073381;28;20472;-70
2021/04/26 08:43:07;;;;;;;18.47;9.83;;;;;;;17.48;37.50;95214.63;5070975;28;20528;-70
2021/04/26 08:45:34;;;;;;;17.37;10.10;;;;;;;17.77;37.22;95215.94;5071970;28;20436;-69
2021/04/26 08:48:02;;;;;;;13.70;8.40;;;;;;;17.41;34.19;95212.31;5070029;28;20445;-70
2021/04/26 08:50:30;;;;;;;17.47;8.30;;;;;;;17.31;33.87;95190.50;5069866;28;20440;-70
2021/04/26 08:52:58;;;;;;;15.87;8.13;;;;;;;17.66;35.11;95203.97;5069514;28;20810;-71
2021/04/26 08:55:25;;;;;;;12.23;7.73;;;;;;;17.98;35.62;95200.47;5069537;28;20567;-70
2021/04/26 08:57:53;;;;;;;13.77;6.77;;;;;;;18.18;34.87;95189.47;5069255;28;20982;-70
2021/04/26 09:00:22;;;;;;;10.27;6.57;;;;;;;18.36;34.64;95204.50;5069489;28;20438;-71
2021/04/26 09:02:52;;;;;;;11.13;5.70;;;;;;;18.31;32.66;95198.50;5069614;28;20461;-70
2021/04/26 09:05:47;;;;;;;32.27;18.03;;;;;;;18.16;32.44;95203.03;5069901;28;20513;-70
2021/04/26 09:08:23;;;;;;;11.47;6.47;;;;;;;18.22;34.91;95201.06;5069356;28;20521;-71
2021/04/26 09:10:51;;;;;;;13.17;5.90;;;;;;;18.34;30.83;95204.00;5069147;28;20481;-72
2021/04/26 09:13:49;;;;;;;13.90;5.73;;;;;;;18.34;29.41;95204.00;5069154;28;20434;-70
2021/04/26 09:16:20;;;;;;;12.80;5.87;;;;;;;18.32;29.28;95194.78;5069450;28;20508;-70
2021/04/26 09:18:51;;;;;;;8.43;5.10;;;;;;;18.20;27.25;95195.28;5068359;28;20484;-71
2021/04/26 09:21:25;;;;;;;11.13;4.97;;;;;;;18.55;29.94;95197.25;5069307;28;20503;-71
2021/04/26 09:24:24;;;;;;;13.10;5.80;;;;;;;18.71;28.42;95190.53;5069481;28;20434;-71
2021/04/26 09:26:54;;;;;;;13.43;5.13;;;;;;;18.65;25.78;95189.06;5068943;28;20527;-71
2021/04/26 09:29:25;;;;;;;9.50;4.43;;;;;;;18.61;24.86;95184.66;5069199;28;20442;-71
2021/04/26 09:32:13;;;;;;;10.93;4.73;;;;;;;18.59;24.98;95179.66;5069227;28;20442;-72
2021/04/26 09:34:45;;;;;;;9.97;5.13;;;;;;;18.32;25.13;95184.19;5070302;28;20881;-71
2021/04/26 09:37:20;;;;;;;12.60;4.93;;;;;;;18.87;27.78;95181.13;5071761;28;20519;-71
2021/04/26 09:39:59;;;;;;;8.83;4.30;;;;;;;18.82;24.60;95173.28;5069408;28;20545;-71
2021/04/26 09:42:55;;;;;;;7.70;4.87;;;;;;;19.09;23.76;95173.19;5068425;28;20438;-71
2021/04/26 09:45:23;;;;;;;9.30;4.60;;;;;;;19.23;22.77;95167.84;5068410;28;20492;-72
2021/04/26 09:48:08;;;;;;;11.50;5.73;;;;;;;18.85;25.18;95162.06;5068496;28;20457;-70
2021/04/26 09:50:53;;;;;;;11.10;4.83;;;;;;;19.78;25.10;95165.69;5068745;28;20456;-70
2021/04/26 09:53:24;;;;;;;12.30;4.60;;;;;;;20.43;26.04;95155.91;5068654;28;20430;-71
2021/04/26 09:55:52;;;;;;;12.07;4.43;;;;;;;20.79;25.02;95155.63;5068767;28;20490;-71
2021/04/26 09:58:19;;;;;;;13.17;4.93;;;;;;;20.94;23.08;95157.81;5068434;28;20199;-72
2021/04/26 10:00:46;;;;;;;8.87;4.93;;;;;;;21.30;22.76;95144.19;5069088;28;20195;-71
2021/04/26 10:03:14;;;;;;;8.30;5.03;;;;;;;21.45;23.88;95146.34;5067794;28;20630;-72
2021/04/26 10:05:44;;;;;;;10.23;4.60;;;;;;;21.60;22.63;95135.19;5068808;28;20450;-71
2021/04/26 10:08:16;;;;;;;8.17;4.63;;;;;;;21.72;21.76;95140.63;5068730;28;20283;-71
2021/04/26 10:10:45;;;;;;;6.93;4.47;;;;;;;20.50;20.57;95148.25;5068765;28;20223;-70
2021/04/26 10:13:13;;;;;;;7.53;5.20;;;;;;;20.55;22.17;95139.31;5068101;28;20227;-71
2021/04/26 10:15:40;;;;;;;9.20;5.43;;;;;;;21.48;22.19;95135.84;5068980;28;20220;-71
2021/04/26 10:18:11;;;;;;;11.50;5.50;;;;;;;21.92;21.76;95130.09;5068025;28;20216;-70
2021/04/26 10:20:42;;;;;;;10.60;5.20;;;;;;;22.16;21.34;95134.84;5068562;28;20204;-70
2021/04/26 10:23:43;;;;;;;7.00;4.87;;;;;;;22.12;21.74;95128.56;5068198;28;20192;-71
2021/04/26 10:26:47;;;;;;;6.33;4.67;;;;;;;22.61;22.26;95114.47;5068785;28;20203;-71
2021/04/26 10:29:25;;;;;;;6.33;4.57;;;;;;;22.60;21.17;95102.25;5068417;28;20223;-70
2021/04/26 10:32:04;;;;;;;8.67;5.20;;;;;;;23.20;21.69;95092.91;5070856;28;20192;-72
2021/04/26 10:34:36;;;;;;;8.77;4.80;;;;;;;23.17;20.97;95093.59;5072046;28;20722;-70
2021/04/26 10:37:15;;;;;;;10.90;5.00;;;;;;;23.22;20.65;95090.69;5071899;28;20192;-70
2021/04/26 10:39:56;;;;;;;6.63;4.53;;;;;;;23.22;20.51;95086.13;5071934;28;21136;-72
2021/04/26 10:42:35;;;;;;;8.80;3.97;;;;;;;23.20;20.62;95087.56;5072084;28;20271;-72
2021/04/26 10:45:04;;;;;;;6.30;4.30;;;;;;;23.64;20.45;95060.06;5072453;28;20202;-71
2021/04/26 10:47:34;;;;;;;7.47;4.10;;;;;;;23.25;19.67;95068.66;5071620;28;20199;-71
2021/04/26 10:50:02;;;;;;;7.67;4.17;;;;;;;23.66;20.97;95068.53;5072413;28;20261;-71
2021/04/26 10:52:29;;;;;;;7.83;4.57;;;;;;;23.81;20.23;95065.97;5072070;28;20200;-71
2021/04/26 10:54:57;;;;;;;6.77;4.20;;;;;;;24.21;19.24;95060.75;5072469;28;20739;-71
2021/04/26 10:57:47;;;;;;;8.83;4.20;;;;;;;23.85;19.79;95063.41;5072269;28;20267;-70
2021/04/26 11:03:21;;;;;;;7.70;4.13;;;;;;;24.18;20.21;95042.69;5071705;28;20200;-73
2021/04/26 11:05:52;;;;;;;8.90;3.80;;;;;;;24.16;20.28;95058.28;5071494;28;20252;-72
2021/04/26 11:10:57;;;;;;;8.87;4.13;;;;;;;;;;5071813;28;20234;-71
2021/04/26 11:13:31;;;;;;;6.87;4.70;;;;;;;24.58;19.47;95040.81;5071289;28;20200;-72
2021/04/26 11:16:21;;;;;;;7.57;4.10;;;;;;;24.86;19.58;95030.91;5071628;28;20219;-70
2021/04/26 11:18:57;;;;;;;8.50;4.30;;;;;;;25.24;20.07;95029.59;5069780;28;20199;-71
2021/04/26 11:21:41;;;;;;;9.97;4.70;;;;;;;25.09;19.67;95029.22;5072283;28;20180;-75
2021/04/26 11:24:09;;;;;;;8.23;4.53;;;;;;;24.72;18.81;95014.47;5072048;28;20283;-71
2021/04/26 11:26:36;;;;;;;6.77;4.43;;;;;;;24.57;19.39;95023.19;5071641;28;20202;-73
2021/04/26 11:29:13;;;;;;;9.03;4.10;;;;;;;24.29;19.21;95017.00;5071058;28;20228;-73
2021/04/26 11:31:45;;;;;;;8.53;4.80;;;;;;;24.26;19.74;95020.34;5071280;28;20199;-72
2021/04/26 11:34:12;;;;;;;8.70;5.20;;;;;;;24.50;19.87;95012.25;5071422;28;20691;-72
2021/04/26 11:37:03;;;;;;;5.90;4.83;;;;;;;24.66;19.19;94999.69;5071749;28;20270;-71
2021/04/26 11:39:38;;;;;;;11.93;4.73;;;;;;;25.40;19.54;94993.66;5071665;28;20204;-71
2021/04/26 11:42:05;;;;;;;7.43;4.63;;;;;;;25.24;18.29;94997.41;5070454;28;22013;-72
2021/04/26 11:44:34;;;;;;;6.67;4.50;;;;;;;24.98;19.34;94985.28;5071303;28;20180;-72
2021/04/26 11:47:12;;;;;;;8.60;4.43;;;;;;;24.55;18.26;94987.13;5069488;28;20192;-72
2021/04/26 11:49:44;;;;;;;9.43;5.00;;;;;;;24.73;18.91;94983.84;5070988;28;20223;-73
2021/04/26 11:52:18;;;;;;;11.37;5.03;;;;;;;24.99;19.16;94986.84;5071030;28;20184;-71
2021/04/26 11:55:03;;;;;;;10.90;4.93;;;;;;;24.90;17.85;94988.91;5071444;28;20211;-72
2021/04/26 11:57:49;;;;;;;8.27;5.30;;;;;;;24.60;18.00;94981.50;5070580;28;20298;-72
2021/04/26 12:00:22;;;;;;;6.93;4.53;;;;;;;25.12;18.50;94973.34;5072065;28;20195;-72